createdAt,value
2024-05-09T00:00:47.587Z,57.11
2024-05-09T00:03:35.679Z,57.32
2024-05-09T00:06:04.713Z,57.27
2024-05-09T00:08:32.984Z,57.45
2024-05-09T00:11:01.507Z,57.84
2024-05-09T00:13:29.957Z,57.86
2024-05-09T00:15:59.167Z,57.87
2024-05-09T00:18:27.109Z,58.05
2024-05-09T00:20:55.806Z,58.20
2024-05-09T00:23:23.917Z,58.52
2024-05-09T00:25:52.264Z,58.40
2024-05-09T00:28:20.325Z,58.41
2024-05-09T00:30:48.696Z,58.55
2024-05-09T00:33:16.973Z,58.60
2024-05-09T00:35:45.054Z,58.98
2024-05-09T00:38:13.234Z,59.11
2024-05-09T00:40:43.128Z,59.13
2024-05-09T00:43:14.356Z,59.73
2024-05-09T00:45:44.039Z,59.93
2024-05-09T00:48:17.492Z,59.97
2024-05-09T00:50:48.556Z,60.09
2024-05-09T00:53:18.359Z,60.27
2024-05-09T00:55:48.166Z,60.60
2024-05-09T00:58:21.281Z,60.71
2024-05-09T01:00:50.701Z,60.41
2024-05-09T01:03:20.635Z,60.57
2024-05-09T01:05:49.087Z,61.02
2024-05-09T01:08:18.385Z,61.32
2024-05-09T01:10:48.522Z,61.47
2024-05-09T01:13:17.511Z,61.58
2024-05-09T01:15:48.113Z,61.38
2024-05-09T01:18:16.797Z,61.53
2024-05-09T01:20:45.639Z,62.02
2024-05-09T01:23:15.937Z,61.98
2024-05-09T01:25:46.365Z,62.90
2024-05-09T01:28:16.509Z,65.00
2024-05-09T01:30:44.736Z,65.04
2024-05-09T01:33:13.498Z,64.05
2024-05-09T01:35:53.083Z,63.27
2024-05-09T01:38:39.612Z,62.93
2024-05-09T01:41:13.928Z,59.82
2024-05-09T01:43:42.027Z,57.38
2024-05-09T01:46:17.317Z,57.43
2024-05-09T01:48:46.624Z,57.91
2024-05-09T01:51:15.102Z,58.76
2024-05-09T01:53:44.344Z,59.40
2024-05-09T01:56:12.718Z,59.51
2024-05-09T01:58:40.903Z,59.72
2024-05-09T02:01:08.920Z,60.25
2024-05-09T02:03:37.219Z,60.74
2024-05-09T02:06:05.860Z,60.94
2024-05-09T02:08:34.063Z,61.19
2024-05-09T02:11:02.431Z,61.45
2024-05-09T02:13:30.668Z,61.76
2024-05-09T02:15:59.029Z,61.93
2024-05-09T02:18:27.124Z,62.92
2024-05-09T02:20:55.230Z,64.78
2024-05-09T02:23:23.176Z,64.68
2024-05-09T02:25:51.239Z,64.54
2024-05-09T02:28:21.347Z,64.00
2024-05-09T02:30:49.406Z,62.80
2024-05-09T02:33:17.593Z,62.37
2024-05-09T02:35:45.912Z,61.42
2024-05-09T02:38:14.004Z,60.02
2024-05-09T02:40:42.320Z,57.95
2024-05-09T02:43:12.921Z,57.79
2024-05-09T02:45:42.138Z,58.27
2024-05-09T02:48:12.459Z,58.57
2024-05-09T02:50:42.174Z,59.04
2024-05-09T02:53:14.480Z,59.62
2024-05-09T02:55:43.172Z,60.15
2024-05-09T02:58:12.280Z,60.84
2024-05-09T03:00:42.461Z,61.45
2024-05-09T03:03:14.330Z,61.67
2024-05-09T03:05:45.985Z,62.52
2024-05-09T03:08:14.460Z,64.11
2024-05-09T03:10:42.922Z,64.66
2024-05-09T03:13:15.782Z,64.42
2024-05-09T03:15:45.272Z,63.72
2024-05-09T03:18:13.749Z,62.93
2024-05-09T03:20:44.095Z,62.30
2024-05-09T03:23:12.900Z,61.83
2024-05-09T03:25:41.068Z,61.37
2024-05-09T03:28:09.455Z,59.98
2024-05-09T03:30:41.914Z,57.72
2024-05-09T03:33:18.686Z,57.76
2024-05-09T03:35:48.929Z,58.18
2024-05-09T03:38:17.717Z,58.66
2024-05-09T03:40:50.879Z,59.16
2024-05-09T03:43:20.279Z,59.82
2024-05-09T03:45:50.434Z,60.28
2024-05-09T03:48:19.153Z,60.82
2024-05-09T03:50:47.509Z,61.31
2024-05-09T03:53:15.642Z,61.77
2024-05-09T03:55:43.916Z,62.74
2024-05-09T03:58:14.512Z,64.88
2024-05-09T04:00:43.325Z,65.44
2024-05-09T04:03:13.085Z,64.80
2024-05-09T04:05:43.020Z,64.03
2024-05-09T04:08:15.791Z,63.19
2024-05-09T04:10:44.372Z,62.69
2024-05-09T04:13:12.643Z,62.19
2024-05-09T04:15:40.587Z,61.78
2024-05-09T04:18:08.806Z,61.37
2024-05-09T04:20:39.933Z,60.76
2024-05-09T04:23:14.788Z,59.20
2024-05-09T04:25:45.335Z,58.42
2024-05-09T04:28:14.602Z,58.47
2024-05-09T04:30:43.343Z,59.27
2024-05-09T04:33:13.804Z,59.50
2024-05-09T04:35:44.065Z,60.06
2024-05-09T04:38:14.654Z,60.51
2024-05-09T04:40:43.615Z,61.32
2024-05-09T04:43:17.544Z,61.59
2024-05-09T04:45:45.907Z,61.74
2024-05-09T04:48:14.268Z,61.68
2024-05-09T04:50:42.666Z,62.41
2024-05-09T04:53:16.384Z,63.50
2024-05-09T04:55:45.573Z,63.59
2024-05-09T04:58:13.841Z,62.44
2024-05-09T05:00:42.057Z,61.82
2024-05-09T05:03:14.313Z,60.44
2024-05-09T05:05:46.303Z,58.83
2024-05-09T05:08:16.876Z,57.31
2024-05-09T05:10:48.086Z,57.33
2024-05-09T05:13:20.427Z,57.75
2024-05-09T05:15:52.094Z,58.16
2024-05-09T05:18:20.493Z,58.89
2024-05-09T05:20:49.502Z,59.86
2024-05-09T05:23:21.558Z,60.36
2024-05-09T05:25:54.264Z,60.80
2024-05-09T05:28:23.048Z,60.57
2024-05-09T05:30:51.518Z,60.79
2024-05-09T05:33:22.310Z,61.01
2024-05-09T05:35:51.067Z,60.74
2024-05-09T05:38:21.247Z,61.31
2024-05-09T05:40:50.695Z,61.13
2024-05-09T05:43:19.234Z,61.33
2024-05-09T05:45:47.739Z,61.39
2024-05-09T05:48:17.423Z,61.75
2024-05-09T05:50:46.531Z,61.87
2024-05-09T05:53:14.892Z,61.61
2024-05-09T05:55:43.254Z,61.37
2024-05-09T05:58:12.676Z,61.36
2024-05-09T06:00:42.672Z,61.51
2024-05-09T06:03:14.822Z,60.85
2024-05-09T06:05:45.826Z,60.68
2024-05-09T06:08:14.728Z,60.68
2024-05-09T06:10:43.041Z,60.50
2024-05-09T06:13:12.903Z,60.51
2024-05-09T06:15:42.219Z,60.71
2024-05-09T06:18:11.823Z,60.72
2024-05-09T06:20:43.117Z,60.46
2024-05-09T06:23:13.120Z,60.50
2024-05-09T06:25:42.661Z,60.63
2024-05-09T06:28:11.618Z,60.96
2024-05-09T06:30:42.467Z,59.97
2024-05-09T06:33:14.538Z,59.52
2024-05-09T06:35:46.150Z,58.59
2024-05-09T06:38:14.643Z,59.11
2024-05-09T06:40:44.069Z,59.04
2024-05-09T06:43:15.046Z,58.28
2024-05-09T06:45:45.098Z,58.94
2024-05-09T06:48:13.253Z,58.85
2024-05-09T06:50:41.662Z,58.01
2024-05-09T06:53:10.131Z,58.30
2024-05-09T06:55:38.330Z,57.75
2024-05-09T10:49:14.498Z,40.57
2024-05-09T10:51:44.007Z,40.11
2024-05-09T10:54:11.104Z,40.19
2024-05-09T10:56:38.127Z,39.82
2024-05-09T10:59:05.175Z,39.36
2024-05-09T11:01:32.421Z,40.15
2024-05-09T11:04:01.064Z,39.50
2024-05-09T11:06:28.539Z,39.82
2024-05-09T11:08:57.054Z,38.68
2024-05-09T11:11:26.956Z,39.19
2024-05-09T11:13:53.919Z,37.82
2024-05-09T11:16:21.616Z,38.07
2024-05-09T11:18:58.948Z,38.84
2024-05-09T11:21:26.552Z,37.36
2024-05-09T11:23:54.182Z,38.01
2024-05-09T11:26:21.728Z,38.11
2024-05-09T11:28:49.932Z,38.28
2024-05-09T11:31:17.585Z,38.24
2024-05-09T11:33:45.347Z,38.56
2024-05-09T11:36:13.105Z,37.98
2024-05-09T11:38:40.863Z,36.43
2024-05-09T11:41:07.816Z,37.79
2024-05-09T11:43:34.696Z,38.52
2024-05-09T11:46:03.208Z,38.16
2024-05-09T11:48:30.960Z,38.66
2024-05-09T11:50:58.003Z,37.53
2024-05-09T11:53:24.703Z,37.00
2024-05-09T11:55:51.835Z,36.58
2024-05-09T11:58:20.634Z,37.22
2024-05-09T12:00:47.658Z,38.00
2024-05-09T12:03:15.032Z,38.64
2024-05-09T12:05:42.680Z,38.21
2024-05-09T12:08:10.003Z,38.06
2024-05-09T12:10:37.566Z,38.03
2024-05-09T12:13:06.264Z,37.83
2024-05-09T12:15:38.468Z,37.63
2024-05-09T12:18:07.434Z,37.96
2024-05-09T12:20:38.333Z,37.14
2024-05-09T12:23:09.332Z,37.75
2024-05-09T12:25:39.080Z,36.28
2024-05-09T12:28:07.798Z,34.35
2024-05-09T12:30:39.516Z,36.35
2024-05-09T12:33:12.898Z,36.33
2024-05-09T12:35:44.027Z,37.16
2024-05-09T12:38:13.427Z,36.65
2024-05-09T12:40:40.418Z,36.04
2024-05-09T12:43:08.723Z,35.79
2024-05-09T12:45:37.491Z,35.13
2024-05-09T12:48:07.685Z,36.26
2024-05-09T12:50:35.784Z,36.20
2024-05-09T12:53:03.830Z,34.95
2024-05-09T12:55:40.339Z,34.96
2024-05-09T12:58:19.161Z,35.39
2024-05-09T13:00:46.962Z,36.22
2024-05-09T13:03:14.814Z,36.57
2024-05-09T13:05:43.951Z,36.74
2024-05-09T13:08:12.314Z,36.71
2024-05-09T13:10:39.423Z,36.34
2024-05-09T13:13:06.985Z,36.73
2024-05-09T13:15:34.336Z,35.99
2024-05-09T13:18:03.240Z,35.63
2024-05-09T13:20:34.346Z,34.72
2024-05-09T13:23:07.754Z,35.63
2024-05-09T13:25:37.682Z,35.57
2024-05-09T13:28:06.567Z,36.07
2024-05-09T13:30:39.892Z,36.43
2024-05-09T13:33:11.426Z,36.48
2024-05-09T13:35:42.780Z,36.41
2024-05-09T13:38:13.544Z,36.05
2024-05-09T13:40:41.291Z,36.46
2024-05-09T13:43:08.653Z,36.63
2024-05-09T13:45:35.616Z,35.37
2024-05-09T13:48:03.399Z,36.00
2024-05-09T13:50:34.642Z,36.37
2024-05-09T13:53:04.849Z,36.46
2024-05-09T13:55:32.503Z,36.31
2024-05-09T13:58:00.335Z,35.60
2024-05-09T14:00:40.663Z,35.01
2024-05-09T14:03:12.357Z,34.59
2024-05-09T14:05:57.269Z,35.38
2024-05-09T14:08:25.602Z,35.64
2024-05-09T14:10:53.951Z,35.37
2024-05-09T14:13:22.160Z,35.58
2024-05-09T14:15:50.571Z,35.64
2024-05-09T14:18:19.140Z,35.49
2024-05-09T14:20:47.290Z,36.02
2024-05-09T14:23:18.047Z,35.93
2024-05-09T14:25:50.069Z,35.84
2024-05-09T14:28:22.581Z,35.70
2024-05-09T14:30:51.052Z,35.67
2024-05-09T14:33:25.574Z,36.17
2024-05-09T14:35:54.208Z,35.53
2024-05-09T14:38:24.268Z,35.89
2024-05-09T14:40:52.175Z,35.94
2024-05-09T14:43:20.125Z,35.75
2024-05-09T14:45:48.241Z,36.02
2024-05-09T14:48:16.626Z,35.46
2024-05-09T14:50:44.440Z,35.61
2024-05-09T14:53:13.867Z,34.86
2024-05-09T14:55:43.491Z,35.49
2024-05-09T14:58:13.481Z,35.54
2024-05-09T15:00:46.647Z,35.51
2024-05-09T15:03:20.255Z,35.27
2024-05-09T15:05:49.332Z,35.89
2024-05-09T15:08:18.742Z,34.78
2024-05-09T15:10:49.936Z,34.13
2024-05-09T15:13:20.131Z,34.46
2024-05-09T15:15:49.143Z,34.73
2024-05-09T15:18:17.682Z,35.06
2024-05-09T15:20:46.430Z,34.99
2024-05-09T15:23:14.642Z,34.93
2024-05-09T15:25:44.884Z,35.32
2024-05-09T15:28:12.963Z,35.40
2024-05-09T15:30:45.439Z,35.44
2024-05-09T15:33:15.390Z,36.26
2024-05-09T15:35:45.689Z,37.10
2024-05-09T15:38:15.255Z,34.83
2024-05-09T15:40:43.446Z,33.79
2024-05-09T15:43:12.089Z,34.72
2024-05-09T15:45:41.392Z,35.12
2024-05-09T15:48:11.218Z,35.30
2024-05-09T15:50:41.922Z,34.35
2024-05-09T15:53:13.660Z,34.15
2024-05-09T15:55:43.522Z,33.96
2024-05-09T15:58:12.701Z,33.94
2024-05-09T16:00:44.768Z,34.46
2024-05-09T16:03:15.071Z,34.44
2024-05-09T16:05:48.013Z,34.78
2024-05-09T16:08:16.763Z,35.05
2024-05-09T16:10:47.241Z,35.13
2024-05-09T16:13:17.289Z,34.72
2024-05-09T16:23:24.493Z,35.26
2024-05-09T16:25:52.622Z,35.12
2024-05-09T16:28:23.876Z,35.91
2024-05-09T16:30:54.080Z,36.54
2024-05-09T16:33:26.128Z,37.19
2024-05-09T16:35:54.494Z,37.72
2024-05-09T16:38:22.668Z,37.26
2024-05-09T16:40:51.144Z,37.61
2024-05-09T16:43:19.395Z,38.32
2024-05-09T16:45:47.887Z,38.31
2024-05-09T16:48:17.031Z,38.05
2024-05-09T16:50:45.220Z,38.38
2024-05-09T16:53:13.898Z,38.55
2024-05-09T16:55:41.964Z,38.55
2024-05-09T16:58:12.672Z,38.65
2024-05-09T17:00:43.404Z,39.04
2024-05-09T17:03:15.435Z,39.19
2024-05-09T17:05:49.123Z,39.51
2024-05-09T17:08:20.765Z,40.17
2024-05-09T17:10:49.949Z,40.20
2024-05-09T17:13:19.364Z,40.37
2024-05-09T17:15:49.522Z,40.57
2024-05-09T17:18:18.109Z,41.10
2024-05-09T17:20:46.486Z,41.58
2024-05-09T17:23:14.835Z,42.16
2024-05-09T17:25:43.668Z,42.52
2024-05-09T17:28:12.576Z,42.92
2024-05-09T17:30:42.750Z,42.93
2024-05-09T17:33:12.706Z,42.85
2024-05-09T17:35:41.732Z,42.85
2024-05-09T17:38:09.909Z,43.06
2024-05-09T17:40:39.095Z,43.24
2024-05-09T17:43:10.716Z,43.47
2024-05-09T17:45:41.073Z,43.83
2024-05-09T17:48:12.183Z,43.87
2024-05-09T17:50:42.113Z,43.94
2024-05-09T17:53:11.310Z,44.09
2024-05-09T17:55:40.808Z,44.19
2024-05-09T17:58:10.435Z,44.47
2024-05-09T18:00:41.589Z,44.54
2024-05-09T18:03:12.458Z,44.66
2024-05-09T18:05:44.063Z,44.87
2024-05-09T18:08:13.634Z,45.05
2024-05-09T18:10:43.119Z,45.21
2024-05-09T18:13:13.448Z,45.27
2024-05-09T18:15:42.020Z,45.38
2024-05-09T18:18:12.872Z,45.62
2024-05-09T18:20:44.790Z,45.72
2024-05-09T18:23:16.746Z,45.96
2024-05-09T18:25:47.166Z,47.63
2024-05-09T18:28:17.081Z,47.80
2024-05-09T18:30:46.231Z,47.90
2024-05-09T18:33:14.664Z,48.05
2024-05-09T18:35:44.750Z,48.35
2024-05-09T18:38:13.618Z,48.67
2024-05-09T18:40:43.992Z,49.01
2024-05-09T18:43:14.468Z,49.56
2024-05-09T18:45:42.620Z,49.61
2024-05-09T18:48:11.737Z,50.29
2024-05-09T18:50:41.394Z,50.84
2024-05-09T18:53:12.538Z,50.83
2024-05-09T18:55:43.026Z,50.84
2024-05-09T18:58:11.193Z,50.80
2024-05-09T19:00:42.661Z,50.88
2024-05-09T19:03:14.654Z,50.98
2024-05-09T19:05:45.920Z,51.10
2024-05-09T19:08:15.794Z,51.46
2024-05-09T19:10:45.991Z,51.76
2024-05-09T19:13:15.068Z,51.84
2024-05-09T19:15:44.417Z,51.94
2024-05-09T19:18:14.222Z,52.15
2024-05-09T19:20:44.246Z,52.18
2024-05-09T19:23:13.061Z,52.25
2024-05-09T19:25:41.705Z,52.73
2024-05-09T19:28:10.227Z,52.85
2024-05-09T19:30:41.538Z,53.28
2024-05-09T19:33:13.320Z,53.39
2024-05-09T19:35:43.744Z,53.65
2024-05-09T19:38:12.751Z,53.76
2024-05-09T19:40:41.594Z,53.97
2024-05-09T19:43:10.635Z,54.17
2024-05-09T19:45:39.121Z,54.07
2024-05-09T19:48:08.428Z,54.17
2024-05-09T19:50:42.272Z,54.29
2024-05-09T19:53:14.567Z,54.44
2024-05-09T19:55:43.384Z,54.63
2024-05-09T19:58:12.595Z,54.98
2024-05-09T20:00:43.362Z,54.99
2024-05-09T20:03:15.168Z,55.28
2024-05-09T20:05:46.664Z,55.59
2024-05-09T20:08:15.564Z,55.55
2024-05-09T20:10:44.011Z,55.77
2024-05-09T20:13:12.391Z,56.13
2024-05-09T20:15:41.010Z,56.29
2024-05-09T20:25:42.380Z,57.47
2024-05-09T20:28:11.119Z,57.48
2024-05-09T20:30:39.572Z,58.38
2024-05-09T20:33:08.995Z,58.10
2024-05-09T20:35:38.121Z,58.37
2024-05-09T20:38:06.304Z,58.37
2024-05-09T20:40:37.974Z,58.87
2024-05-09T20:43:09.921Z,58.85
2024-05-09T20:45:39.239Z,59.00
2024-05-09T20:48:09.212Z,59.42
2024-05-09T20:50:40.938Z,59.54
2024-05-09T20:53:13.536Z,59.64
2024-05-09T20:55:45.933Z,59.86
2024-05-09T20:58:14.495Z,59.85
2024-05-09T21:00:45.509Z,59.92
2024-05-09T21:03:18.020Z,60.51
2024-05-09T21:05:48.302Z,60.77
2024-05-09T21:08:17.135Z,60.48
2024-05-09T21:10:45.551Z,61.05
2024-05-09T21:13:13.857Z,61.02
2024-05-09T21:15:42.009Z,61.29
2024-05-09T21:18:10.638Z,61.56
2024-05-09T21:20:38.851Z,61.89
2024-05-09T21:23:06.746Z,61.89
2024-05-09T21:25:35.182Z,62.08
2024-05-09T21:28:04.074Z,62.14
2024-05-09T21:30:41.122Z,61.83
2024-05-09T21:33:13.856Z,62.08
2024-05-09T21:35:44.266Z,62.77
2024-05-09T21:38:14.810Z,64.48
2024-05-09T21:40:44.752Z,64.59
2024-05-09T21:43:14.422Z,64.00
2024-05-09T21:45:43.289Z,62.62
2024-05-09T21:48:13.482Z,62.07
2024-05-09T21:50:42.594Z,60.10
2024-05-09T21:53:12.507Z,57.91
2024-05-09T21:55:45.197Z,57.94
2024-05-09T21:58:14.352Z,58.15
2024-05-09T22:00:45.672Z,58.87
2024-05-09T22:03:14.987Z,59.36
2024-05-09T22:05:45.046Z,59.82
2024-05-09T22:08:13.624Z,59.99
2024-05-09T22:10:42.285Z,60.37
2024-05-09T22:13:10.699Z,60.68
2024-05-09T22:23:15.376Z,62.32
2024-05-09T22:25:43.500Z,63.45
2024-05-09T22:28:15.106Z,63.42
2024-05-09T22:30:46.005Z,62.76
2024-05-09T22:33:15.279Z,61.63
2024-05-09T22:35:43.436Z,60.37
2024-05-09T22:38:11.801Z,58.82
2024-05-09T22:40:47.273Z,58.75
2024-05-09T22:50:54.730Z,60.69
2024-05-09T22:53:25.157Z,61.01
2024-05-09T22:55:54.447Z,61.29
2024-05-09T22:58:23.581Z,61.56
2024-05-09T23:00:52.553Z,61.90
2024-05-09T23:03:22.013Z,62.60
2024-05-09T23:05:52.938Z,64.08
2024-05-09T23:08:21.044Z,64.48
2024-05-09T23:10:49.285Z,63.46
2024-05-09T23:13:17.509Z,62.70
2024-05-09T23:15:45.785Z,62.06
2024-05-09T23:18:13.790Z,60.67
2024-05-09T23:20:42.366Z,59.02
2024-05-09T23:23:11.775Z,58.94
2024-05-09T23:25:41.818Z,59.29
2024-05-09T23:28:11.212Z,59.71
2024-05-09T23:30:41.125Z,60.23
2024-05-09T23:33:12.882Z,60.66
2024-05-09T23:35:42.698Z,61.05
2024-05-09T23:38:10.827Z,61.63
2024-05-09T23:40:41.039Z,61.96
2024-05-09T23:43:11.745Z,63.01
2024-05-09T23:45:41.808Z,65.00
2024-05-09T23:48:11.147Z,64.51
2024-05-09T23:50:40.721Z,64.59
2024-05-09T23:53:10.759Z,63.64
2024-05-09T23:55:39.813Z,62.67
2024-05-09T23:58:11.398Z,62.34
